Yakutat Airport
PAYA : rendu visible

Aérodrome :











RETROUVEZ-NOUS SUR...

 
LOGIN :

S'inscrire | Disclaimer

   EN    FR    IT 

 









Légende :    VFR   VFR Marginal   IFR   IFR Intensif   IFR Très Intensif
Visi : 
Plafond : 
>= 8 km
>= 3000ft
5 à 8 km
1000 à 3000 ft
1500m à 5 km
500 à 1000 ft
800 à 1500m
200 à 500 ft
< 800m
< 200 ft
Symboles :   Orages  Brouillard  Fortes neiges  Fortes précipitations  Vent > 20 kt






- Altitude de l'aérodrome : 33 ft


PAYA - Yakutat

DERNIER METAR :
  • 160653Z AUTO 07006KT 10SM OVC060 09/M04 A2956 RMK AO2 SLP010 T00941039 TSNO

METARs EXPIRÉS :
  • 160553Z AUTO 04010KT 10SM BKN070 OVC090 11/M04 A2958 RMK AO2 SLP016 T01061044 10156 20022 58026 TSNO
  • 160453Z AUTO 08005KT 10SM FEW055 BKN070 OVC100 14/M03 A2961 RMK AO2 SLP028 T01441033 TSNO

TAF PAYA
Valide du 16 à 06h jusqu'au 17 à 06h UTC


160552Z 1606/1706 08005KT P6SM FEW050 OVC070 WS020/14030KT
FM161100 08007KT 6SM -RA FEW025 OVC050 WS020/13035KT
TEMPO 1611/1615 4SM -SN OVC025
FM161800 08008KT 6SM -RA OVC025 AMD LTD TO CLD VIS AND WIND



MET'MAP, la Météo Aéronautique d'un coup d'oeil ! - Copyright ORBIFLY Décembre 2007 - Disclaimer

ORBIFLY MET'MAP TEAM :

Programmation & Développement : Alexandra Zaïnal
Sur une idée originale de : Baudouin d'Aumeries
Assistance à la programmation : Marc-Olivier Méhu
Soutien technique & logistique : Manuel Goepfert

Contact : metmap@orbifly.com




SOURCES & CREDITS :

   NOAA       Earth
Advisory